Terminal Aerodrome Forecast
Issued by NWS Cleveland, OH

Home | Current Version | Previous Version | Text Only | Print | Product List | Glossary On
Versions: 1 2 3 4 5 6 7 8 9 10 11 12 13 14 15 16 17 18
000
FTUS41 KCLE 311100
TAFTOL
TAF
KTOL 311129Z 3112/0112 22010KT P6SM BKN070 BKN150
      TEMPO 3112/3114 BKN030
     FM010300 23010KT 6SM -SN OVC035
     FM010600 35005KT 3SM -SN OVC012
     FM011000 05005KT 1SM -SN OVC008=

USA.gov is the U.S. government's official web portal to all federal, state and local government web resources and services.